Time;durP1;ratioP1;P1;durP2;ratioP2;P2;SDS_P1;SDS_P2;PMS_P1;PMS_P2;Temp;Humidity;BMP_temperature;BMP_pressure;BME280_temperature;BME280_humidity;BME280_pressure;Samples;Min_cycle;Max_cycle;Signal;HPM_P1;HPM_P2
2023/07/05 00:00:56;;;;;;;11.05;7.40;;;;;;;16.49;61.17;99656.25;10461819;28;20504;-75
2023/07/05 00:06:05;;;;;;;12.57;5.63;;;;;;;16.48;60.63;99655.44;10470510;28;20059;-75
2023/07/05 00:11:10;;;;;;;7.70;5.75;;;;;;;16.46;60.52;99633.06;10465082;28;20037;-74
2023/07/05 00:16:13;;;;;;;12.35;6.25;;;;;;;16.62;59.55;99614.97;10467476;28;20037;-74
2023/07/05 00:21:17;;;;;;;10.30;6.10;;;;;;;16.65;59.68;99601.91;10460409;28;20052;-74
2023/07/05 00:26:20;;;;;;;12.48;6.07;;;;;;;16.61;59.92;99597.03;10465293;28;20040;-74
2023/07/05 00:31:23;;;;;;;11.82;6.38;;;;;;;16.69;59.57;99591.53;10462280;28;20037;-74
2023/07/05 00:36:28;;;;;;;8.88;6.00;;;;;;;16.63;59.50;99581.44;10466897;28;20631;-74
2023/07/05 00:41:31;;;;;;;12.68;6.57;;;;;;;16.50;65.19;99571.19;10463422;28;20036;-74
2023/07/05 00:46:36;;;;;;;13.38;6.78;;;;;;;15.32;74.20;99565.94;10459071;28;20068;-74
2023/07/05 00:51:51;;;;;;;15.68;6.85;;;;;;;14.93;75.92;99567.56;10454463;28;20063;-74
2023/07/05 00:56:57;;;;;;;12.93;7.75;;;;;;;14.97;76.94;99547.28;10463115;28;20037;-75
2023/07/05 01:02:01;;;;;;;11.23;7.30;;;;;;;14.97;76.91;99532.91;10457182;28;20033;-74
2023/07/05 01:07:07;;;;;;;13.52;7.53;;;;;;;14.70;79.91;99515.25;10460174;28;20055;-75
2023/07/05 01:12:18;;;;;;;11.02;7.40;;;;;;;14.37;80.91;99507.16;10462078;28;20043;-74
2023/07/05 01:17:32;;;;;;;12.52;7.80;;;;;;;14.48;80.62;99514.97;10459320;28;20053;-75
2023/07/05 01:23:11;;;;;;;14.75;7.88;;;;;;;14.04;84.66;99506.31;10456029;28;20083;-74
2023/07/05 01:28:39;;;;;;;24.63;8.40;;;;;;;14.06;84.72;99498.91;10449957;28;20524;-74
2023/07/05 01:33:51;;;;;;;16.15;9.05;;;;;;;14.09;84.91;99488.59;10460182;28;20087;-74
2023/07/05 01:38:54;;;;;;;14.52;8.23;;;;;;;14.22;85.65;99492.66;10449649;28;20132;-75
2023/07/05 01:43:57;;;;;;;10.77;7.10;;;;;;;14.26;82.55;99484.06;10461875;28;20827;-75
2023/07/05 01:49:14;;;;;;;16.52;7.80;;;;;;;14.45;83.33;99496.34;10454768;28;20056;-76
2023/07/05 01:54:25;;;;;;;13.38;8.25;;;;;;;14.50;82.43;99493.16;10456594;28;20168;-75
2023/07/05 01:59:34;;;;;;;14.20;9.80;;;;;;;14.37;84.54;99482.81;10458777;28;20044;-76
2023/07/05 02:04:39;;;;;;;14.60;8.70;;;;;;;14.33;86.11;99468.00;10473289;28;20042;-76
2023/07/05 02:09:42;;;;;;;14.38;8.98;;;;;;;14.31;86.09;99464.63;10440225;28;20076;-76
2023/07/05 02:14:46;;;;;;;12.65;9.10;;;;;;;14.31;85.41;99448.41;10459674;28;20055;-75
2023/07/05 02:19:52;;;;;;;17.42;9.75;;;;;;;14.43;86.23;99446.25;10478366;28;20415;-75
2023/07/05 02:24:55;;;;;;;15.48;9.50;;;;;;;14.34;86.50;99442.66;10472183;28;20055;-76
2023/07/05 02:29:59;;;;;;;17.45;9.15;;;;;;;14.36;85.30;99427.13;10469652;28;20048;-75
2023/07/05 02:35:03;;;;;;;16.92;9.02;;;;;;;14.38;84.47;99412.47;10473598;28;20043;-76
2023/07/05 02:40:07;;;;;;;22.00;9.75;;;;;;;14.46;83.58;99387.28;10467355;28;20057;-76
2023/07/05 02:45:12;;;;;;;18.02;11.02;;;;;;;14.57;84.29;99399.59;10468277;28;20037;-75
2023/07/05 02:50:17;;;;;;;13.73;9.88;;;;;;;14.53;83.81;99390.13;10469021;28;20523;-76
2023/07/05 02:55:20;;;;;;;15.68;10.00;;;;;;;14.32;85.34;99402.31;10479723;28;20122;-75
2023/07/05 03:00:23;;;;;;;17.55;10.63;;;;;;;14.07;87.70;99427.66;10471495;28;20568;-74
2023/07/05 03:05:27;;;;;;;18.30;11.07;;;;;;;13.99;88.97;99398.84;10465781;28;20041;-73
2023/07/05 03:10:38;;;;;;;14.75;9.82;;;;;;;14.10;90.08;99379.59;10463347;28;20072;-74
2023/07/05 03:15:40;;;;;;;16.75;10.80;;;;;;;14.21;89.69;99383.78;10465582;28;20045;-74
2023/07/05 03:20:47;;;;;;;15.75;10.55;;;;;;;14.35;90.32;99371.44;10467768;28;20124;-74
2023/07/05 03:25:57;;;;;;;21.30;10.77;;;;;;;14.46;90.19;99356.75;10470613;28;20416;-74
2023/07/05 03:31:03;;;;;;;19.35;11.32;;;;;;;14.52;90.96;99361.44;10447755;28;20102;-74
2023/07/05 03:36:11;;;;;;;17.83;11.70;;;;;;;14.62;90.73;99345.00;10456827;28;20053;-75
2023/07/05 03:41:17;;;;;;;17.67;12.02;;;;;;;14.64;91.00;99324.06;10464873;28;20048;-74
2023/07/05 03:46:19;;;;;;;20.70;12.77;;;;;;;14.52;90.59;99320.91;10465445;28;20043;-74
2023/07/05 03:51:25;;;;;;;20.02;12.10;;;;;;;14.38;90.86;99317.91;10468509;28;20051;-76
2023/07/05 03:56:28;;;;;;;19.85;11.73;;;;;;;14.39;90.91;99310.66;10451164;28;20046;-75
2023/07/05 04:01:31;;;;;;;20.65;12.65;;;;;;;14.30;91.45;99303.56;10470107;28;20039;-75
2023/07/05 04:06:36;;;;;;;16.38;11.73;;;;;;;14.30;91.10;99292.75;10461371;28;20039;-75
2023/07/05 04:11:39;;;;;;;16.30;10.25;;;;;;;14.23;90.78;99297.16;10467546;28;20039;-76
2023/07/05 04:16:41;;;;;;;16.75;11.70;;;;;;;14.26;91.73;99296.81;10466465;28;20036;-75
2023/07/05 04:21:46;;;;;;;16.90;11.25;;;;;;;14.37;91.58;99308.09;10461016;28;20044;-75
2023/07/05 04:26:48;;;;;;;20.52;11.75;;;;;;;14.33;91.62;99319.44;10461644;28;20041;-75
2023/07/05 04:31:51;;;;;;;15.38;9.27;;;;;;;14.43;91.76;99314.69;10456050;28;20045;-75
2023/07/05 04:36:56;;;;;;;15.05;7.88;;;;;;;14.48;92.55;99315.03;10453143;28;20048;-74
2023/07/05 04:41:58;;;;;;;10.07;6.40;;;;;;;14.47;94.46;99326.00;10461708;28;20039;-74
2023/07/05 04:47:01;;;;;;;11.00;5.65;;;;;;;14.57;95.24;99310.41;10459895;28;20040;-74
2023/07/05 04:52:07;;;;;;;9.02;5.88;;;;;;;14.79;94.05;99309.63;10456696;28;20037;-74
2023/07/05 04:57:10;;;;;;;7.25;5.60;;;;;;;14.88;94.36;99307.69;10456221;28;20101;-75
2023/07/05 05:02:34;;;;;;;5.40;3.85;;;;;;;14.79;93.78;99306.06;10456947;28;20045;-75
2023/07/05 05:07:38;;;;;;;9.93;4.95;;;;;;;14.86;94.46;99314.31;10462046;28;20033;-75
2023/07/05 05:12:41;;;;;;;4.78;3.35;;;;;;;14.63;94.79;99308.88;10462106;28;20041;-74
2023/07/05 05:17:44;;;;;;;7.05;4.72;;;;;;;14.88;94.81;99305.00;10460982;28;20033;-76
2023/07/05 05:22:48;;;;;;;5.25;3.65;;;;;;;14.68;94.18;99303.78;10456420;28;20113;-75
2023/07/05 05:27:51;;;;;;;3.80;2.58;;;;;;;14.47;95.06;99310.63;10462220;28;20048;-75
2023/07/05 05:32:54;;;;;;;4.32;3.50;;;;;;;14.35;96.88;99329.03;10453667;28;20063;-74
2023/07/05 05:37:59;;;;;;;3.50;2.90;;;;;;;14.30;96.69;99320.63;10457357;28;20091;-74
2023/07/05 05:43:01;;;;;;;6.25;2.85;;;;;;;14.41;94.78;99302.38;10450998;28;20415;-75
2023/07/05 05:48:05;;;;;;;4.93;2.13;;;;;;;13.93;100.00;99340.97;10451946;28;20515;-75
2023/07/05 05:53:10;;;;;;;5.72;3.58;;;;;;;13.75;99.02;99334.09;10463492;28;20122;-74
2023/07/05 05:58:13;;;;;;;3.60;2.05;;;;;;;13.16;95.17;99347.69;10463105;28;20059;-75
2023/07/05 06:03:16;;;;;;;3.08;2.35;;;;;;;12.86;91.43;99368.00;10457209;28;20044;-74
2023/07/05 06:08:20;;;;;;;2.50;2.08;;;;;;;12.82;87.04;99380.97;10458430;28;20052;-75
2023/07/05 06:13:23;;;;;;;3.28;2.28;;;;;;;12.60;84.28;99395.88;10464565;28;20040;-75
2023/07/05 06:18:27;;;;;;;2.92;1.50;;;;;;;12.36;82.21;99418.13;10457730;28;20514;-75
2023/07/05 06:23:31;;;;;;;3.05;1.35;;;;;;;12.32;82.79;99478.69;10460082;28;20495;-76
2023/07/05 06:28:34;;;;;;;3.65;1.83;;;;;;;12.48;81.01;99448.31;10457015;28;20037;-76
2023/07/05 06:33:37;;;;;;;9.27;2.60;;;;;;;12.45;81.53;99438.72;10463541;28;20445;-76
2023/07/05 06:38:42;;;;;;;3.08;1.88;;;;;;;13.03;80.70;99448.75;10461130;28;20155;-76
2023/07/05 06:43:45;;;;;;;3.53;2.53;;;;;;;13.31;79.93;99424.22;10458622;28;20037;-76
2023/07/05 06:48:48;;;;;;;3.00;1.85;;;;;;;13.32;76.25;99457.44;10456552;28;20057;-76
2023/07/05 06:53:52;;;;;;;4.63;2.20;;;;;;;13.33;76.10;99434.84;10454096;28;20053;-77
2023/07/05 06:58:55;;;;;;;10.68;3.15;;;;;;;13.32;74.21;99450.19;10453867;28;20037;-77
2023/07/05 07:03:58;;;;;;;3.17;1.67;;;;;;;13.62;71.25;99427.16;10457447;28;20495;-76
2023/07/05 07:09:04;;;;;;;5.10;2.67;;;;;;;13.92;71.23;99449.13;10457394;28;20044;-76
2023/07/05 07:14:07;;;;;;;3.45;2.58;;;;;;;14.06;69.72;99453.00;10464390;28;20127;-76
2023/07/05 07:19:11;;;;;;;4.65;2.08;;;;;;;14.19;67.58;99453.31;10461357;28;20082;-75
2023/07/05 07:24:15;;;;;;;2.20;1.75;;;;;;;14.67;65.29;99465.06;10460473;28;20455;-76
2023/07/05 07:29:18;;;;;;;4.13;2.42;;;;;;;15.91;62.71;99449.91;10454643;28;20504;-76
2023/07/05 07:34:21;;;;;;;3.72;2.15;;;;;;;16.10;61.73;99451.28;10446072;28;20515;-76
2023/07/05 07:39:25;;;;;;;4.18;2.53;;;;;;;15.09;63.48;99460.38;10450424;28;20061;-75
2023/07/05 07:44:28;;;;;;;4.38;2.28;;;;;;;14.35;64.86;99479.47;10458085;28;20035;-76
2023/07/05 07:49:31;;;;;;;3.95;2.97;;;;;;;16.61;58.87;99475.03;10453324;28;20063;-76
2023/07/05 07:54:35;;;;;;;4.55;2.17;;;;;;;16.64;56.07;99439.41;10447859;28;20118;-76
2023/07/05 07:59:41;;;;;;;3.10;2.10;;;;;;;15.91;56.92;99460.75;10461069;28;20040;-75
2023/07/05 08:04:45;;;;;;;1.73;1.27;;;;;;;17.12;53.99;99485.97;10451031;28;20037;-75
2023/07/05 08:09:50;;;;;;;3.00;1.92;;;;;;;16.17;55.56;99498.28;10460289;28;20052;-76
2023/07/05 08:14:53;;;;;;;2.75;1.92;;;;;;;16.30;55.29;99498.53;10449762;28;20045;-76
2023/07/05 08:19:55;;;;;;;3.85;2.00;;;;;;;16.02;55.23;99525.31;10456615;28;20774;-76
2023/07/05 08:25:00;;;;;;;3.65;2.15;;;;;;;15.97;54.77;99532.31;10452226;28;20040;-76
2023/07/05 08:30:03;;;;;;;2.50;1.27;;;;;;;16.10;54.65;99522.53;10452153;28;20424;-75
2023/07/05 08:35:07;;;;;;;10.10;2.22;;;;;;;16.70;51.98;99510.03;10451977;28;20133;-75
2023/07/05 08:40:12;;;;;;;3.00;1.67;;;;;;;15.68;54.33;99526.53;10445190;28;20393;-75
2023/07/05 08:45:23;;;;;;;5.45;1.80;;;;;;;14.91;55.72;99537.16;10440430;28;20144;-75
2023/07/05 08:50:29;;;;;;;2.85;2.00;;;;;;;15.17;56.24;99541.50;10445524;28;20124;-76
2023/07/05 08:55:58;;;;;;;2.47;1.63;;;;;;;15.19;56.33;99559.25;10438776;28;20113;-76
2023/07/05 09:01:04;;;;;;;2.05;1.30;;;;;;;15.88;54.21;99574.84;10450752;28;20393;-75
2023/07/05 09:06:21;;;;;;;9.85;2.15;;;;;;;16.93;52.43;99579.63;10453045;28;20412;-76
2023/07/05 09:11:42;;;;;;;3.30;1.50;;;;;;;15.88;53.93;99574.84;10455712;28;20048;-76
2023/07/05 09:16:53;;;;;;;1.25;1.10;;;;;;;15.24;54.19;99610.94;10447390;28;20109;-76
2023/07/05 09:22:03;;;;;;;3.05;1.40;;;;;;;14.64;57.59;99610.53;10450077;28;20078;-76
2023/07/05 09:27:15;;;;;;;3.40;1.20;;;;;;;14.23;58.88;99646.41;10450788;28;20045;-76
2023/07/05 09:32:19;;;;;;;;;;;;;;;14.33;58.31;99643.59;10461475;28;20627;-75
2023/07/05 09:37:26;;;;;;;4.55;1.17;;;;;;;15.07;56.64;99621.97;10461025;28;19959;-75
2023/07/05 09:42:39;;;;;;;3.47;1.20;;;;;;;16.44;53.43;99618.00;10454323;28;20107;-75
2023/07/05 09:47:43;;;;;;;4.45;1.77;;;;;;;16.22;53.71;99615.06;10460327;28;20040;-75
2023/07/05 09:52:49;;;;;;;1.50;1.05;;;;;;;16.78;52.10;99628.38;10465489;28;20051;-75
2023/07/05 09:57:53;;;;;;;2.78;1.17;;;;;;;16.17;53.35;99616.63;10461254;28;20040;-77
2023/07/05 10:03:05;;;;;;;2.72;1.10;;;;;;;15.71;54.24;99620.09;10465026;28;20037;-75
2023/07/05 10:08:16;;;;;;;1.00;0.80;;;;;;;15.11;56.14;99637.69;10462720;28;20114;-75
2023/07/05 10:13:25;;;;;;;1.65;1.05;;;;;;;15.70;55.11;99621.97;10452905;28;20033;-75
2023/07/05 10:18:31;;;;;;;1.13;1.08;;;;;;;15.37;56.52;99645.59;10453807;28;20040;-75
2023/07/05 10:23:34;;;;;;;5.35;1.70;;;;;;;15.88;54.93;99650.66;10446483;28;20041;-75
2023/07/05 10:28:42;;;;;;;1.25;1.15;;;;;;;15.36;55.88;99638.50;10453790;28;20116;-75
2023/07/05 10:33:47;;;;;;;2.40;1.52;;;;;;;16.15;54.48;99636.63;10445529;28;20510;-75
2023/07/05 10:38:51;;;;;;;2.92;1.70;;;;;;;17.34;52.49;99625.34;10451041;28;20045;-75
2023/07/05 10:44:02;;;;;;;2.05;1.08;;;;;;;16.82;51.84;99624.28;10458983;28;20051;-75
2023/07/05 10:49:09;;;;;;;4.97;2.30;;;;;;;16.52;51.77;99670.28;10462570;28;20047;-76
2023/07/05 10:54:18;;;;;;;3.38;1.67;;;;;;;17.49;51.28;99623.44;10466383;28;20032;-75
2023/07/05 10:59:30;;;;;;;3.25;1.50;;;;;;;17.80;48.54;99606.94;10468576;28;20083;-74
2023/07/05 11:04:43;;;;;;;4.18;1.73;;;;;;;17.12;49.85;99606.19;10463384;28;20044;-75
2023/07/05 11:09:45;;;;;;;1.42;1.33;;;;;;;16.26;51.17;99639.97;10466992;28;20558;-75
2023/07/05 11:14:52;;;;;;;2.80;1.77;;;;;;;17.06;50.56;99616.94;10463659;28;20040;-75
2023/07/05 11:19:55;;;;;;;4.35;1.52;;;;;;;17.30;50.51;99619.41;10463425;28;20050;-75
2023/07/05 11:24:57;;;;;;;2.55;1.42;;;;;;;18.49;47.56;99620.06;10460880;28;20044;-76
2023/07/05 11:30:02;;;;;;;2.30;1.95;;;;;;;17.36;48.17;99705.56;10467046;28;20500;-76
2023/07/05 11:35:04;;;;;;;2.15;1.55;;;;;;;17.55;48.57;99685.16;10468806;28;20040;-75
2023/07/05 11:40:41;;;;;;;7.90;1.83;;;;;;;17.55;48.94;99684.28;10469973;28;20045;-75
2023/07/05 11:45:48;;;;;;;5.68;0.95;;;;;;;17.48;49.15;99644.31;10455028;28;20041;-74
2023/07/05 11:50:51;;;;;;;5.47;1.27;;;;;;;16.90;49.63;99692.03;10456250;28;20128;-76
2023/07/05 11:55:54;;;;;;;5.32;1.55;;;;;;;16.70;50.40;99686.28;10460824;28;20067;-75
2023/07/05 12:01:02;;;;;;;13.10;1.90;;;;;;;16.46;50.53;99656.63;10464205;28;20059;-75
2023/07/05 12:06:12;;;;;;;3.28;1.25;;;;;;;16.62;49.92;99664.63;10443615;28;20392;-75
2023/07/05 12:11:27;;;;;;;6.80;1.75;;;;;;;17.04;48.96;99660.53;10470210;28;20530;-75
2023/07/05 12:16:31;;;;;;;3.28;1.50;;;;;;;17.74;48.14;99678.31;10466325;28;20041;-74
2023/07/05 12:21:36;;;;;;;5.05;1.63;;;;;;;17.95;48.00;99693.00;10463167;28;20049;-75
2023/07/05 12:26:39;;;;;;;7.00;1.77;;;;;;;17.64;47.73;99705.75;10460297;28;20044;-75
2023/07/05 12:31:44;;;;;;;5.45;1.15;;;;;;;17.95;46.75;99696.56;10458467;28;20053;-76
2023/07/05 12:36:47;;;;;;;4.07;1.73;;;;;;;18.02;46.83;99688.50;10454014;28;20040;-75
2023/07/05 12:41:59;;;;;;;5.20;1.58;;;;;;;18.97;44.77;99695.63;10452192;28;20051;-75
2023/07/05 12:47:13;;;;;;;;;;;;;;;19.86;43.49;99712.22;10451041;28;20056;-75
2023/07/05 12:52:20;;;;;;;5.05;1.50;;;;;;;20.17;43.02;99716.34;10457821;28;20393;-76
2023/07/05 12:57:27;;;;;;;5.10;1.30;;;;;;;18.80;42.85;99700.50;10460140;28;20063;-76
2023/07/05 13:02:32;;;;;;;4.60;1.52;;;;;;;18.68;44.87;99721.09;10444368;28;20140;-75
2023/07/05 13:07:37;;;;;;;3.38;1.58;;;;;;;18.98;42.46;99730.00;10455442;28;20051;-75
2023/07/05 13:12:48;;;;;;;7.30;1.40;;;;;;;19.17;42.66;99737.50;10440346;28;20045;-75
2023/07/05 13:17:52;;;;;;;5.05;1.80;;;;;;;18.80;42.83;99736.72;10447534;28;20052;-75
2023/07/05 13:22:57;;;;;;;8.48;2.13;;;;;;;18.96;43.57;99754.66;10452368;28;20111;-75
2023/07/05 13:28:02;;;;;;;3.20;1.02;;;;;;;18.25;44.71;99773.50;10443885;28;20068;-74
2023/07/05 13:33:13;;;;;;;5.57;1.38;;;;;;;18.40;44.76;99764.47;10449917;28;20080;-75
2023/07/05 13:38:17;;;;;;;4.82;1.92;;;;;;;19.17;43.06;99785.63;10452983;28;20041;-75
2023/07/05 13:43:20;;;;;;;5.65;1.10;;;;;;;18.69;43.18;99769.00;10454707;28;20411;-75
2023/07/05 13:48:24;;;;;;;5.38;1.42;;;;;;;18.37;43.39;99773.84;10447449;28;20052;-75
2023/07/05 13:53:29;;;;;;;7.70;1.60;;;;;;;17.54;43.90;99785.81;10451811;28;20422;-75
2023/07/05 13:58:33;;;;;;;3.97;1.20;;;;;;;17.64;44.76;99789.09;10446086;28;20071;-75
2023/07/05 14:03:37;;;;;;;5.55;1.75;;;;;;;17.73;44.60;99814.31;10441502;28;20045;-75
2023/07/05 14:09:00;;;;;;;6.35;1.70;;;;;;;19.00;43.10;99795.94;10455358;28;20071;-75
2023/07/05 14:14:03;;;;;;;4.78;1.50;;;;;;;18.42;43.01;99806.75;10462432;28;20412;-75
2023/07/05 14:19:08;;;;;;;6.78;1.73;;;;;;;17.79;43.61;99814.41;10471752;28;20044;-75
2023/07/05 14:24:13;;;;;;;10.30;1.23;;;;;;;18.03;43.73;99817.94;10467290;28;20052;-75
2023/07/05 14:29:16;;;;;;;6.47;1.73;;;;;;;19.26;41.29;99835.38;10462511;28;20040;-75
2023/07/05 14:34:20;;;;;;;3.70;1.25;;;;;;;20.25;40.67;99827.16;10466026;28;20041;-75
2023/07/05 14:39:23;;;;;;;5.90;1.70;;;;;;;18.99;41.11;99816.03;10463063;28;20048;-75
2023/07/05 14:44:26;;;;;;;6.00;1.85;;;;;;;18.60;42.17;99810.97;10463346;28;20052;-75
2023/07/05 14:49:30;;;;;;;6.85;1.60;;;;;;;18.99;42.15;99826.91;10463116;28;20033;-75
2023/07/05 14:54:33;;;;;;;6.30;1.42;;;;;;;18.84;42.97;99845.16;10463429;28;20057;-75
2023/07/05 14:59:36;;;;;;;3.05;1.70;;;;;;;19.04;46.50;99857.13;10464829;28;20091;-75
2023/07/05 15:04:40;;;;;;;7.78;2.55;;;;;;;19.64;47.34;99864.03;10446558;28;20052;-75
2023/07/05 15:09:43;;;;;;;12.63;2.38;;;;;;;20.55;44.93;99874.13;10446396;28;20140;-75
2023/07/05 15:14:46;;;;;;;4.60;2.00;;;;;;;19.14;47.82;99890.31;10441981;28;20120;-75
2023/07/05 15:19:51;;;;;;;6.47;1.88;;;;;;;18.53;49.62;99893.28;10447756;28;20523;-75
2023/07/05 15:24:54;;;;;;;8.93;2.47;;;;;;;18.10;50.67;99906.69;10449421;28;20052;-75
2023/07/05 15:29:58;;;;;;;4.18;1.75;;;;;;;18.57;50.34;99918.25;10444457;28;20056;-75
2023/07/05 15:35:04;;;;;;;6.00;1.70;;;;;;;19.08;49.49;99920.19;10442413;28;20116;-75
2023/07/05 15:40:08;;;;;;;4.07;1.77;;;;;;;18.01;52.00;99940.38;10447493;28;20041;-75
2023/07/05 15:45:12;;;;;;;4.07;2.00;;;;;;;17.99;51.84;99942.47;10461742;28;20717;-76
2023/07/05 15:50:18;;;;;;;5.07;2.65;;;;;;;17.63;52.86;99955.78;10453213;28;20036;-76
2023/07/05 15:55:22;;;;;;;8.73;2.55;;;;;;;18.00;51.97;99959.59;10462503;28;20048;-74
2023/07/05 16:00:27;;;;;;;9.20;2.20;;;;;;;18.73;50.78;99942.53;10459896;28;20693;-75
2023/07/05 16:05:33;;;;;;;3.33;1.80;;;;;;;18.78;50.06;99961.03;10457146;28;20040;-75
2023/07/05 16:10:40;;;;;;;4.22;2.50;;;;;;;17.74;52.10;99955.34;10450639;28;20528;-76
2023/07/05 16:15:53;;;;;;;2.47;1.63;;;;;;;19.14;49.00;99952.94;10458476;28;20037;-75
2023/07/05 16:20:59;;;;;;;6.03;1.88;;;;;;;19.83;47.50;99985.16;10453182;28;20041;-75
2023/07/05 16:26:02;;;;;;;3.40;1.83;;;;;;;19.83;48.20;99998.78;10455788;28;20032;-76
2023/07/05 16:31:05;;;;;;;7.43;2.00;;;;;;;19.02;48.59;100001.56;10450060;28;20707;-76
2023/07/05 16:36:09;;;;;;;4.00;1.80;;;;;;;19.54;48.21;100017.91;10455137;28;20033;-76
2023/07/05 16:41:14;;;;;;;4.38;1.77;;;;;;;21.31;44.03;100010.59;10444091;28;20048;-75
2023/07/05 16:46:18;;;;;;;5.05;2.08;;;;;;;21.66;42.98;100026.88;10450137;28;20041;-76
2023/07/05 16:51:22;;;;;;;3.47;1.88;;;;;;;23.08;41.03;100031.16;10450003;28;20053;-75
2023/07/05 16:56:25;;;;;;;3.15;1.83;;;;;;;19.60;46.74;100044.41;10440944;28;20385;-75
2023/07/05 17:01:29;;;;;;;4.28;1.55;;;;;;;17.78;50.87;100029.19;10447198;28;20048;-75
2023/07/05 17:06:34;;;;;;;5.40;2.03;;;;;;;20.57;46.43;100024.84;10446734;28;20041;-75
2023/07/05 17:11:36;;;;;;;3.70;2.13;;;;;;;22.99;40.82;100027.81;10445148;28;20052;-74
2023/07/05 17:16:39;;;;;;;4.15;1.95;;;;;;;24.89;38.26;100027.06;10437201;28;20040;-73
2023/07/05 17:21:44;;;;;;;3.30;1.83;;;;;;;25.14;37.24;100037.19;10443164;28;20052;-75
2023/07/05 17:26:48;;;;;;;7.10;2.53;;;;;;;25.45;37.01;100051.81;10435476;28;20053;-76
2023/07/05 17:31:53;;;;;;;5.72;1.80;;;;;;;25.43;37.15;100057.56;10438399;28;20100;-75
2023/07/05 17:36:58;;;;;;;4.43;1.98;;;;;;;26.11;35.60;100053.72;10448350;28;20112;-76
2023/07/05 17:42:01;;;;;;;4.43;1.83;;;;;;;25.43;36.49;100067.75;10445332;28;20076;-75
2023/07/05 17:47:04;;;;;;;3.38;1.73;;;;;;;24.57;38.38;100077.66;10447203;28;20040;-75
2023/07/05 17:52:08;;;;;;;6.18;1.90;;;;;;;23.10;40.55;100077.50;10453904;28;20052;-75
2023/07/05 17:57:11;;;;;;;3.17;1.95;;;;;;;20.12;45.45;100073.28;10443775;28;20564;-75
2023/07/05 18:02:16;;;;;;;7.30;1.92;;;;;;;19.22;48.60;100079.91;10454206;28;20048;-75
2023/07/05 18:07:20;;;;;;;6.05;2.67;;;;;;;18.54;49.82;100096.25;10446237;28;20028;-75
2023/07/05 18:12:23;;;;;;;4.82;2.13;;;;;;;17.69;52.32;100074.56;10459088;28;20048;-74
2023/07/05 18:17:26;;;;;;;3.08;2.20;;;;;;;17.47;52.84;100095.22;10460690;28;20041;-75
2023/07/05 18:22:31;;;;;;;4.30;2.08;;;;;;;16.61;54.93;100104.03;10461977;28;20041;-75
2023/07/05 18:27:33;;;;;;;7.53;2.42;;;;;;;16.72;55.81;100123.50;10457321;28;20072;-75
2023/07/05 18:32:36;;;;;;;4.90;2.30;;;;;;;16.68;56.25;100129.47;10464304;28;20049;-75
2023/07/05 18:37:41;;;;;;;3.45;2.20;;;;;;;16.57;55.90;100150.47;10464496;28;20152;-74
2023/07/05 18:42:45;;;;;;;4.45;2.10;;;;;;;16.43;56.67;100132.19;10453943;28;20114;-74
2023/07/05 18:47:48;;;;;;;6.03;2.65;;;;;;;16.56;56.29;100134.38;10454795;28;20181;-74
2023/07/05 18:52:52;;;;;;;7.38;2.90;;;;;;;16.69;56.65;100125.72;10471040;28;20496;-74
2023/07/05 18:57:55;;;;;;;5.00;2.53;;;;;;;16.63;56.94;100142.69;10458618;28;20377;-75
2023/07/05 19:02:58;;;;;;;4.57;2.60;;;;;;;16.91;56.25;100140.47;10444855;28;20045;-74
2023/07/05 19:08:03;;;;;;;10.43;2.55;;;;;;;17.06;56.69;100146.88;10455042;28;20060;-74
2023/07/05 19:13:06;;;;;;;6.22;2.58;;;;;;;16.54;57.30;100150.81;10454283;28;20111;-75
2023/07/05 19:18:09;;;;;;;6.45;2.88;;;;;;;16.83;56.59;100149.44;10438714;28;20075;-74
2023/07/05 19:23:13;;;;;;;5.40;2.38;;;;;;;16.95;56.29;100158.06;10451991;28;20419;-75
2023/07/05 19:28:16;;;;;;;15.05;3.50;;;;;;;16.38;63.43;100204.19;10452247;28;20047;-74
2023/07/05 19:33:19;;;;;;;7.35;4.70;;;;;;;13.98;84.33;100204.47;10451074;28;20157;-76
2023/07/05 19:38:23;;;;;;;6.65;3.55;;;;;;;13.49;87.31;100218.19;10454232;28;20434;-75
2023/07/05 19:43:26;;;;;;;4.68;2.28;;;;;;;12.78;88.01;100217.72;10445589;28;20049;-77
2023/07/05 19:48:29;;;;;;;2.97;2.63;;;;;;;12.74;89.74;100219.84;10445091;28;20045;-76
2023/07/05 19:53:34;;;;;;;5.53;2.88;;;;;;;12.91;89.23;100220.97;10446719;28;20063;-76
2023/07/05 19:58:37;;;;;;;3.63;2.50;;;;;;;13.06;89.66;100237.56;10443857;28;20038;-77
2023/07/05 20:03:39;;;;;;;3.78;3.47;;;;;;;13.19;89.96;100227.34;10451609;28;20045;-76
2023/07/05 20:08:44;;;;;;;5.07;4.15;;;;;;;13.21;89.12;100248.75;10445923;28;20040;-76
2023/07/05 20:13:47;;;;;;;6.72;4.90;;;;;;;13.19;89.15;100248.03;10441035;28;20041;-76
2023/07/05 20:18:50;;;;;;;5.53;4.78;;;;;;;13.03;88.87;100262.13;10445653;28;20048;-76
2023/07/05 20:23:54;;;;;;;8.95;5.35;;;;;;;13.10;87.80;100255.16;10439997;28;20048;-76
2023/07/05 20:28:57;;;;;;;5.78;3.80;;;;;;;12.96;87.10;100259.16;10448644;28;20112;-75
2023/07/05 20:34:01;;;;;;;5.72;4.82;;;;;;;12.99;85.88;100260.72;10444448;28;20045;-76
2023/07/05 20:39:06;;;;;;;6.20;4.85;;;;;;;13.11;85.53;100256.00;10443481;28;20060;-76
2023/07/05 20:44:09;;;;;;;5.43;4.55;;;;;;;13.09;85.11;100264.25;10450144;28;20050;-76
2023/07/05 20:49:12;;;;;;;7.15;5.22;;;;;;;13.11;84.81;100267.66;10452200;28;20041;-75
2023/07/05 20:54:17;;;;;;;7.63;5.05;;;;;;;13.02;85.45;100263.13;10458231;28;20048;-75
2023/07/05 20:59:21;;;;;;;10.95;4.50;;;;;;;12.91;85.14;100280.28;10444806;28;20429;-74
2023/07/05 21:04:26;;;;;;;6.45;4.35;;;;;;;12.56;86.79;100275.44;10444656;28;20045;-75
2023/07/05 21:09:32;;;;;;;5.65;4.50;;;;;;;12.55;87.86;100287.22;10446116;28;20419;-75
2023/07/05 21:14:35;;;;;;;8.88;5.47;;;;;;;12.53;87.71;100279.28;10446265;28;20044;-75
2023/07/05 21:19:38;;;;;;;9.32;6.40;;;;;;;12.56;88.13;100283.53;10445679;28;20048;-75
2023/07/05 21:24:42;;;;;;;7.18;5.70;;;;;;;12.58;88.11;100276.16;10451221;28;20064;-75
2023/07/05 21:29:46;;;;;;;9.65;6.85;;;;;;;12.67;87.98;100293.31;10442896;28;20085;-75
2023/07/05 21:34:49;;;;;;;10.60;7.22;;;;;;;12.64;87.70;100283.69;10445076;28;20040;-75
2023/07/05 21:39:53;;;;;;;11.00;7.18;;;;;;;12.73;87.52;100282.00;10447355;28;20049;-75
2023/07/05 21:44:56;;;;;;;9.27;7.05;;;;;;;12.65;87.10;100287.25;10454009;28;20072;-75
2023/07/05 21:49:59;;;;;;;10.48;8.38;;;;;;;12.55;87.53;100293.44;10442672;28;20048;-75
2023/07/05 21:55:04;;;;;;;10.98;6.97;;;;;;;12.24;88.47;100300.72;10455401;28;20036;-74
2023/07/05 22:00:09;;;;;;;9.90;6.80;;;;;;;12.36;87.87;100288.88;10452924;28;20038;-76
2023/07/05 22:05:12;;;;;;;9.10;6.68;;;;;;;12.44;87.34;100301.66;10453082;28;20045;-75
2023/07/05 22:10:18;;;;;;;8.77;7.43;;;;;;;12.38;86.89;100296.84;10449431;28;20087;-75
2023/07/05 22:15:21;;;;;;;7.55;6.50;;;;;;;12.39;86.93;100293.13;10450460;28;20757;-75
2023/07/05 22:20:25;;;;;;;9.52;7.38;;;;;;;12.34;86.04;100293.56;10461851;28;20037;-74
2023/07/05 22:25:30;;;;;;;12.48;8.65;;;;;;;12.29;86.85;100290.44;10458719;28;20041;-74
2023/07/05 22:30:33;;;;;;;9.75;7.90;;;;;;;12.32;86.52;100290.16;10459969;28;20103;-75
2023/07/05 22:35:35;;;;;;;10.10;7.03;;;;;;;12.32;86.76;100292.84;10452865;28;20045;-74
2023/07/05 22:40:39;;;;;;;9.68;7.68;;;;;;;12.38;86.75;100302.22;10462553;28;20055;-75
2023/07/05 22:45:42;;;;;;;12.05;8.70;;;;;;;12.39;87.26;100314.69;10454387;28;20812;-75
2023/07/05 22:50:45;;;;;;;12.43;8.23;;;;;;;12.38;87.20;100313.00;10463530;28;20048;-75
2023/07/05 22:55:49;;;;;;;14.27;9.38;;;;;;;12.40;87.39;100313.72;10461911;28;20542;-75
2023/07/05 23:00:54;;;;;;;11.30;9.35;;;;;;;12.41;87.70;100322.63;10466282;28;20044;-75
2023/07/05 23:06:00;;;;;;;13.20;11.10;;;;;;;12.41;88.59;100319.94;10450983;28;20099;-76
2023/07/05 23:11:07;;;;;;;15.77;11.38;;;;;;;12.37;88.66;100325.63;10476832;28;20053;-75
2023/07/05 23:16:12;;;;;;;20.35;13.48;;;;;;;12.51;88.98;100334.31;10467379;28;20102;-75
2023/07/05 23:21:17;;;;;;;19.17;14.77;;;;;;;12.69;88.62;100345.25;10461274;28;20103;-75
2023/07/05 23:26:22;;;;;;;21.05;14.18;;;;;;;12.83;87.76;100340.31;10459478;28;20492;-75